sensor_id;sensor_type;location;lat;lon;timestamp;P1;durP1;ratioP1;P2;durP2;ratioP2
20559;SDS011;10438;51.454;6.718;2023-03-05T00:01:07;8.47;;;2.07;;
20559;SDS011;10438;51.454;6.718;2023-03-05T00:03:33;12.27;;;2.23;;
20559;SDS011;10438;51.454;6.718;2023-03-05T00:05:59;12.73;;;1.87;;
20559;SDS011;10438;51.454;6.718;2023-03-05T00:08:24;16.60;;;3.00;;
20559;SDS011;10438;51.454;6.718;2023-03-05T00:10:54;9.87;;;1.63;;
20559;SDS011;10438;51.454;6.718;2023-03-05T00:13:21;11.30;;;1.60;;
20559;SDS011;10438;51.454;6.718;2023-03-05T00:15:46;10.70;;;2.17;;
20559;SDS011;10438;51.454;6.718;2023-03-05T00:18:12;8.73;;;2.20;;
20559;SDS011;10438;51.454;6.718;2023-03-05T00:20:38;11.27;;;1.70;;
20559;SDS011;10438;51.454;6.718;2023-03-05T00:23:03;10.40;;;2.00;;
20559;SDS011;10438;51.454;6.718;2023-03-05T00:25:29;11.73;;;2.00;;
20559;SDS011;10438;51.454;6.718;2023-03-05T00:27:54;15.63;;;2.13;;
20559;SDS011;10438;51.454;6.718;2023-03-05T00:30:20;11.83;;;2.20;;
20559;SDS011;10438;51.454;6.718;2023-03-05T00:32:45;10.97;;;2.13;;
20559;SDS011;10438;51.454;6.718;2023-03-05T00:35:11;10.50;;;2.00;;
20559;SDS011;10438;51.454;6.718;2023-03-05T00:37:36;15.17;;;2.30;;
20559;SDS011;10438;51.454;6.718;2023-03-05T00:40:02;17.00;;;2.30;;
20559;SDS011;10438;51.454;6.718;2023-03-05T00:42:28;10.67;;;2.20;;
20559;SDS011;10438;51.454;6.718;2023-03-05T00:44:54;10.97;;;2.03;;
20559;SDS011;10438;51.454;6.718;2023-03-05T00:47:19;9.00;;;1.90;;
20559;SDS011;10438;51.454;6.718;2023-03-05T00:49:45;9.83;;;2.10;;
20559;SDS011;10438;51.454;6.718;2023-03-05T00:52:10;13.07;;;2.00;;
20559;SDS011;10438;51.454;6.718;2023-03-05T00:54:36;12.63;;;2.63;;
20559;SDS011;10438;51.454;6.718;2023-03-05T00:57:01;20.13;;;2.90;;
20559;SDS011;10438;51.454;6.718;2023-03-05T00:59:29;12.40;;;2.40;;
20559;SDS011;10438;51.454;6.718;2023-03-05T01:01:55;14.60;;;2.17;;
20559;SDS011;10438;51.454;6.718;2023-03-05T01:04:20;13.70;;;2.60;;
20559;SDS011;10438;51.454;6.718;2023-03-05T01:06:46;11.53;;;2.00;;
20559;SDS011;10438;51.454;6.718;2023-03-05T01:09:11;15.03;;;2.30;;
20559;SDS011;10438;51.454;6.718;2023-03-05T01:11:37;15.40;;;2.30;;
20559;SDS011;10438;51.454;6.718;2023-03-05T01:14:03;12.03;;;2.00;;
20559;SDS011;10438;51.454;6.718;2023-03-05T01:16:29;12.47;;;2.10;;
20559;SDS011;10438;51.454;6.718;2023-03-05T01:18:55;14.40;;;2.10;;
20559;SDS011;10438;51.454;6.718;2023-03-05T01:21:20;8.10;;;1.90;;
20559;SDS011;10438;51.454;6.718;2023-03-05T01:23:46;10.17;;;2.10;;
20559;SDS011;10438;51.454;6.718;2023-03-05T01:26:12;12.67;;;2.40;;
20559;SDS011;10438;51.454;6.718;2023-03-05T01:28:37;10.70;;;2.20;;
20559;SDS011;10438;51.454;6.718;2023-03-05T01:31:06;16.27;;;2.70;;
20559;SDS011;10438;51.454;6.718;2023-03-05T01:33:32;9.60;;;1.97;;
20559;SDS011;10438;51.454;6.718;2023-03-05T01:35:58;10.90;;;2.57;;
20559;SDS011;10438;51.454;6.718;2023-03-05T01:38:23;12.00;;;2.53;;
20559;SDS011;10438;51.454;6.718;2023-03-05T01:40:49;10.00;;;2.40;;
20559;SDS011;10438;51.454;6.718;2023-03-05T01:43:23;8.63;;;2.03;;
20559;SDS011;10438;51.454;6.718;2023-03-05T01:48:53;11.07;;;2.47;;
20559;SDS011;10438;51.454;6.718;2023-03-05T01:51:28;13.97;;;3.30;;
20559;SDS011;10438;51.454;6.718;2023-03-05T01:53:58;10.63;;;3.20;;
20559;SDS011;10438;51.454;6.718;2023-03-05T01:56:26;14.27;;;2.73;;
20559;SDS011;10438;51.454;6.718;2023-03-05T01:58:53;13.30;;;2.37;;
20559;SDS011;10438;51.454;6.718;2023-03-05T02:01:27;10.30;;;2.50;;
20559;SDS011;10438;51.454;6.718;2023-03-05T02:03:54;13.00;;;2.87;;
20559;SDS011;10438;51.454;6.718;2023-03-05T02:06:20;21.87;;;5.90;;
20559;SDS011;10438;51.454;6.718;2023-03-05T02:08:45;23.10;;;7.17;;
20559;SDS011;10438;51.454;6.718;2023-03-05T02:11:11;13.73;;;3.67;;
20559;SDS011;10438;51.454;6.718;2023-03-05T02:13:36;19.70;;;3.03;;
20559;SDS011;10438;51.454;6.718;2023-03-05T02:16:08;13.57;;;2.80;;
20559;SDS011;10438;51.454;6.718;2023-03-05T02:18:33;15.30;;;3.20;;
20559;SDS011;10438;51.454;6.718;2023-03-05T02:23:30;13.43;;;3.70;;
20559;SDS011;10438;51.454;6.718;2023-03-05T02:25:58;13.73;;;2.73;;
20559;SDS011;10438;51.454;6.718;2023-03-05T02:28:25;13.37;;;3.47;;
20559;SDS011;10438;51.454;6.718;2023-03-05T02:30:58;11.70;;;2.10;;
20559;SDS011;10438;51.454;6.718;2023-03-05T02:33:24;11.73;;;2.13;;
20559;SDS011;10438;51.454;6.718;2023-03-05T02:35:49;9.30;;;2.67;;
20559;SDS011;10438;51.454;6.718;2023-03-05T02:38:16;12.43;;;2.53;;
20559;SDS011;10438;51.454;6.718;2023-03-05T02:40:43;7.93;;;2.40;;
20559;SDS011;10438;51.454;6.718;2023-03-05T02:43:08;11.80;;;2.30;;
20559;SDS011;10438;51.454;6.718;2023-03-05T02:45:34;16.53;;;2.80;;
20559;SDS011;10438;51.454;6.718;2023-03-05T02:48:00;14.73;;;3.30;;
20559;SDS011;10438;51.454;6.718;2023-03-05T02:50:25;22.30;;;4.80;;
20559;SDS011;10438;51.454;6.718;2023-03-05T02:52:52;13.00;;;3.20;;
20559;SDS011;10438;51.454;6.718;2023-03-05T02:55:18;16.40;;;3.47;;
20559;SDS011;10438;51.454;6.718;2023-03-05T02:57:44;17.93;;;4.43;;
20559;SDS011;10438;51.454;6.718;2023-03-05T03:00:09;15.27;;;2.87;;
20559;SDS011;10438;51.454;6.718;2023-03-05T03:02:35;11.20;;;2.67;;
20559;SDS011;10438;51.454;6.718;2023-03-05T03:05:01;10.80;;;2.80;;
20559;SDS011;10438;51.454;6.718;2023-03-05T03:07:27;11.07;;;2.30;;
20559;SDS011;10438;51.454;6.718;2023-03-05T03:09:52;10.70;;;2.67;;
20559;SDS011;10438;51.454;6.718;2023-03-05T03:12:18;14.90;;;3.10;;
20559;SDS011;10438;51.454;6.718;2023-03-05T03:14:43;11.83;;;2.40;;
20559;SDS011;10438;51.454;6.718;2023-03-05T03:17:13;13.03;;;2.33;;
20559;SDS011;10438;51.454;6.718;2023-03-05T03:19:40;11.93;;;2.93;;
20559;SDS011;10438;51.454;6.718;2023-03-05T03:22:07;13.37;;;2.60;;
20559;SDS011;10438;51.454;6.718;2023-03-05T03:24:35;8.87;;;2.23;;
20559;SDS011;10438;51.454;6.718;2023-03-05T03:27:02;8.17;;;2.63;;
20559;SDS011;10438;51.454;6.718;2023-03-05T03:29:28;12.83;;;2.90;;
20559;SDS011;10438;51.454;6.718;2023-03-05T03:31:54;8.30;;;2.30;;
20559;SDS011;10438;51.454;6.718;2023-03-05T03:34:20;12.13;;;2.67;;
20559;SDS011;10438;51.454;6.718;2023-03-05T03:36:46;6.97;;;2.20;;
20559;SDS011;10438;51.454;6.718;2023-03-05T03:39:13;10.40;;;2.30;;
20559;SDS011;10438;51.454;6.718;2023-03-05T03:41:40;10.57;;;2.27;;
20559;SDS011;10438;51.454;6.718;2023-03-05T03:44:07;14.47;;;2.40;;
20559;SDS011;10438;51.454;6.718;2023-03-05T03:46:34;11.17;;;2.27;;
20559;SDS011;10438;51.454;6.718;2023-03-05T03:49:00;11.10;;;2.37;;
20559;SDS011;10438;51.454;6.718;2023-03-05T03:51:26;11.80;;;2.03;;
20559;SDS011;10438;51.454;6.718;2023-03-05T03:53:51;13.80;;;2.27;;
20559;SDS011;10438;51.454;6.718;2023-03-05T03:56:17;9.40;;;2.13;;
20559;SDS011;10438;51.454;6.718;2023-03-05T03:58:43;12.03;;;2.70;;
20559;SDS011;10438;51.454;6.718;2023-03-05T04:01:08;13.43;;;2.90;;
20559;SDS011;10438;51.454;6.718;2023-03-05T04:03:34;11.00;;;2.40;;
20559;SDS011;10438;51.454;6.718;2023-03-05T04:05:59;13.30;;;2.90;;
20559;SDS011;10438;51.454;6.718;2023-03-05T04:08:25;12.13;;;2.87;;
20559;SDS011;10438;51.454;6.718;2023-03-05T04:10:50;12.87;;;3.07;;
20559;SDS011;10438;51.454;6.718;2023-03-05T04:13:16;14.07;;;3.50;;
20559;SDS011;10438;51.454;6.718;2023-03-05T04:15:42;16.20;;;2.70;;
20559;SDS011;10438;51.454;6.718;2023-03-05T04:18:08;12.73;;;2.70;;
20559;SDS011;10438;51.454;6.718;2023-03-05T04:20:34;12.20;;;2.67;;
20559;SDS011;10438;51.454;6.718;2023-03-05T04:23:00;11.30;;;2.70;;
20559;SDS011;10438;51.454;6.718;2023-03-05T04:25:25;14.23;;;2.83;;
20559;SDS011;10438;51.454;6.718;2023-03-05T04:27:51;9.60;;;2.27;;
20559;SDS011;10438;51.454;6.718;2023-03-05T04:30:17;11.60;;;3.00;;
20559;SDS011;10438;51.454;6.718;2023-03-05T04:32:42;13.27;;;2.47;;
20559;SDS011;10438;51.454;6.718;2023-03-05T04:35:08;10.90;;;2.50;;
20559;SDS011;10438;51.454;6.718;2023-03-05T04:37:34;13.43;;;2.57;;
20559;SDS011;10438;51.454;6.718;2023-03-05T04:39:59;15.87;;;2.47;;
20559;SDS011;10438;51.454;6.718;2023-03-05T04:42:25;13.83;;;2.50;;
20559;SDS011;10438;51.454;6.718;2023-03-05T04:44:50;12.40;;;1.90;;
20559;SDS011;10438;51.454;6.718;2023-03-05T04:47:16;15.70;;;2.47;;
20559;SDS011;10438;51.454;6.718;2023-03-05T04:49:43;8.33;;;1.97;;
20559;SDS011;10438;51.454;6.718;2023-03-05T04:52:10;8.30;;;2.23;;
20559;SDS011;10438;51.454;6.718;2023-03-05T04:54:36;9.30;;;2.13;;
20559;SDS011;10438;51.454;6.718;2023-03-05T04:57:02;14.03;;;3.37;;
20559;SDS011;10438;51.454;6.718;2023-03-05T04:59:27;13.03;;;2.37;;
20559;SDS011;10438;51.454;6.718;2023-03-05T05:01:53;14.23;;;2.43;;
20559;SDS011;10438;51.454;6.718;2023-03-05T05:04:19;13.50;;;2.20;;
20559;SDS011;10438;51.454;6.718;2023-03-05T05:06:44;13.43;;;2.70;;
20559;SDS011;10438;51.454;6.718;2023-03-05T05:09:10;9.00;;;2.17;;
20559;SDS011;10438;51.454;6.718;2023-03-05T05:11:35;14.33;;;2.30;;
20559;SDS011;10438;51.454;6.718;2023-03-05T05:14:01;14.20;;;2.37;;
20559;SDS011;10438;51.454;6.718;2023-03-05T05:16:27;12.00;;;2.10;;
20559;SDS011;10438;51.454;6.718;2023-03-05T05:18:53;10.40;;;2.03;;
20559;SDS011;10438;51.454;6.718;2023-03-05T05:21:18;12.70;;;2.23;;
20559;SDS011;10438;51.454;6.718;2023-03-05T05:23:44;10.87;;;2.40;;
20559;SDS011;10438;51.454;6.718;2023-03-05T05:26:13;8.00;;;2.30;;
20559;SDS011;10438;51.454;6.718;2023-03-05T05:28:39;14.33;;;2.40;;
20559;SDS011;10438;51.454;6.718;2023-03-05T05:31:11;22.50;;;2.73;;
20559;SDS011;10438;51.454;6.718;2023-03-05T05:33:38;13.90;;;2.60;;
20559;SDS011;10438;51.454;6.718;2023-03-05T05:36:05;11.23;;;2.27;;
20559;SDS011;10438;51.454;6.718;2023-03-05T05:38:31;14.27;;;2.73;;
20559;SDS011;10438;51.454;6.718;2023-03-05T05:41:01;17.37;;;2.50;;
20559;SDS011;10438;51.454;6.718;2023-03-05T05:43:31;13.10;;;2.60;;
20559;SDS011;10438;51.454;6.718;2023-03-05T05:45:58;10.57;;;2.47;;
20559;SDS011;10438;51.454;6.718;2023-03-05T05:48:29;10.27;;;2.33;;
20559;SDS011;10438;51.454;6.718;2023-03-05T05:50:55;9.13;;;2.63;;
20559;SDS011;10438;51.454;6.718;2023-03-05T05:53:21;10.27;;;2.40;;
20559;SDS011;10438;51.454;6.718;2023-03-05T05:55:47;11.77;;;2.70;;
20559;SDS011;10438;51.454;6.718;2023-03-05T05:58:13;15.33;;;2.80;;
20559;SDS011;10438;51.454;6.718;2023-03-05T06:00:38;11.37;;;2.40;;
20559;SDS011;10438;51.454;6.718;2023-03-05T06:03:04;10.07;;;2.63;;
20559;SDS011;10438;51.454;6.718;2023-03-05T06:05:29;9.97;;;3.20;;
20559;SDS011;10438;51.454;6.718;2023-03-05T06:07:55;15.57;;;2.77;;
20559;SDS011;10438;51.454;6.718;2023-03-05T06:10:20;18.73;;;3.43;;
20559;SDS011;10438;51.454;6.718;2023-03-05T06:12:46;15.80;;;3.17;;
20559;SDS011;10438;51.454;6.718;2023-03-05T06:15:11;14.17;;;3.40;;
20559;SDS011;10438;51.454;6.718;2023-03-05T06:17:37;11.50;;;3.07;;
20559;SDS011;10438;51.454;6.718;2023-03-05T06:20:03;11.23;;;3.00;;
20559;SDS011;10438;51.454;6.718;2023-03-05T06:22:30;10.10;;;3.50;;
20559;SDS011;10438;51.454;6.718;2023-03-05T06:24:59;14.90;;;3.37;;
20559;SDS011;10438;51.454;6.718;2023-03-05T06:27:24;11.13;;;3.80;;
20559;SDS011;10438;51.454;6.718;2023-03-05T06:29:51;11.13;;;3.37;;
20559;SDS011;10438;51.454;6.718;2023-03-05T06:32:17;14.97;;;4.10;;
20559;SDS011;10438;51.454;6.718;2023-03-05T06:34:43;9.77;;;3.13;;
20559;SDS011;10438;51.454;6.718;2023-03-05T06:37:08;13.33;;;3.30;;
20559;SDS011;10438;51.454;6.718;2023-03-05T06:39:34;12.50;;;2.97;;
20559;SDS011;10438;51.454;6.718;2023-03-05T06:41:59;13.17;;;3.10;;
20559;SDS011;10438;51.454;6.718;2023-03-05T06:44:25;12.47;;;3.00;;
20559;SDS011;10438;51.454;6.718;2023-03-05T06:46:50;15.10;;;3.37;;
20559;SDS011;10438;51.454;6.718;2023-03-05T06:49:16;11.50;;;2.90;;
20559;SDS011;10438;51.454;6.718;2023-03-05T06:51:41;18.07;;;3.40;;
20559;SDS011;10438;51.454;6.718;2023-03-05T06:54:08;11.87;;;2.77;;
20559;SDS011;10438;51.454;6.718;2023-03-05T06:56:36;14.13;;;3.13;;
20559;SDS011;10438;51.454;6.718;2023-03-05T06:59:03;12.30;;;3.00;;
20559;SDS011;10438;51.454;6.718;2023-03-05T07:01:29;19.13;;;3.73;;
20559;SDS011;10438;51.454;6.718;2023-03-05T07:03:55;11.07;;;3.10;;
20559;SDS011;10438;51.454;6.718;2023-03-05T07:06:23;9.63;;;3.23;;
20559;SDS011;10438;51.454;6.718;2023-03-05T07:08:49;12.30;;;3.67;;
20559;SDS011;10438;51.454;6.718;2023-03-05T07:11:15;12.03;;;3.57;;
20559;SDS011;10438;51.454;6.718;2023-03-05T07:13:43;14.13;;;3.50;;
20559;SDS011;10438;51.454;6.718;2023-03-05T07:16:15;13.90;;;3.27;;
20559;SDS011;10438;51.454;6.718;2023-03-05T07:18:43;12.97;;;3.27;;
20559;SDS011;10438;51.454;6.718;2023-03-05T07:21:09;16.33;;;2.90;;
20559;SDS011;10438;51.454;6.718;2023-03-05T07:23:39;13.17;;;2.80;;
20559;SDS011;10438;51.454;6.718;2023-03-05T07:26:05;15.50;;;3.33;;
20559;SDS011;10438;51.454;6.718;2023-03-05T07:28:31;10.67;;;2.87;;
20559;SDS011;10438;51.454;6.718;2023-03-05T07:30:58;15.40;;;3.10;;
20559;SDS011;10438;51.454;6.718;2023-03-05T07:33:25;14.63;;;3.80;;
20559;SDS011;10438;51.454;6.718;2023-03-05T07:35:51;13.53;;;3.10;;
20559;SDS011;10438;51.454;6.718;2023-03-05T07:38:17;16.50;;;3.87;;
20559;SDS011;10438;51.454;6.718;2023-03-05T07:40:43;12.07;;;3.33;;
20559;SDS011;10438;51.454;6.718;2023-03-05T07:43:08;11.97;;;3.63;;
20559;SDS011;10438;51.454;6.718;2023-03-05T07:45:37;11.93;;;3.20;;
20559;SDS011;10438;51.454;6.718;2023-03-05T07:48:05;14.83;;;3.90;;
20559;SDS011;10438;51.454;6.718;2023-03-05T07:50:31;10.77;;;3.53;;
20559;SDS011;10438;51.454;6.718;2023-03-05T07:52:57;12.73;;;3.80;;
20559;SDS011;10438;51.454;6.718;2023-03-05T07:55:23;14.97;;;3.87;;
20559;SDS011;10438;51.454;6.718;2023-03-05T07:57:49;15.47;;;3.93;;
20559;SDS011;10438;51.454;6.718;2023-03-05T08:00:14;17.60;;;4.10;;
20559;SDS011;10438;51.454;6.718;2023-03-05T08:02:40;13.93;;;4.03;;
20559;SDS011;10438;51.454;6.718;2023-03-05T08:05:06;13.30;;;3.97;;
20559;SDS011;10438;51.454;6.718;2023-03-05T08:07:32;18.07;;;4.27;;
20559;SDS011;10438;51.454;6.718;2023-03-05T08:09:57;14.30;;;4.33;;
20559;SDS011;10438;51.454;6.718;2023-03-05T08:12:23;11.77;;;4.33;;
20559;SDS011;10438;51.454;6.718;2023-03-05T08:14:48;9.63;;;3.47;;
20559;SDS011;10438;51.454;6.718;2023-03-05T08:17:15;14.40;;;3.73;;
20559;SDS011;10438;51.454;6.718;2023-03-05T08:19:40;12.67;;;3.87;;
20559;SDS011;10438;51.454;6.718;2023-03-05T08:22:06;9.17;;;3.90;;
20559;SDS011;10438;51.454;6.718;2023-03-05T08:24:32;12.67;;;3.70;;
20559;SDS011;10438;51.454;6.718;2023-03-05T08:26:57;12.50;;;3.47;;
20559;SDS011;10438;51.454;6.718;2023-03-05T08:29:23;17.17;;;3.33;;
20559;SDS011;10438;51.454;6.718;2023-03-05T08:31:50;23.20;;;5.60;;
20559;SDS011;10438;51.454;6.718;2023-03-05T08:34:17;14.83;;;4.53;;
20559;SDS011;10438;51.454;6.718;2023-03-05T08:36:44;12.87;;;4.97;;
20559;SDS011;10438;51.454;6.718;2023-03-05T08:39:09;12.17;;;4.20;;
20559;SDS011;10438;51.454;6.718;2023-03-05T08:41:35;13.40;;;5.33;;
20559;SDS011;10438;51.454;6.718;2023-03-05T08:44:00;15.43;;;5.27;;
20559;SDS011;10438;51.454;6.718;2023-03-05T08:46:26;18.93;;;5.60;;
20559;SDS011;10438;51.454;6.718;2023-03-05T08:48:51;15.47;;;6.07;;
20559;SDS011;10438;51.454;6.718;2023-03-05T08:51:18;14.13;;;5.67;;
20559;SDS011;10438;51.454;6.718;2023-03-05T08:53:46;16.83;;;6.33;;
20559;SDS011;10438;51.454;6.718;2023-03-05T08:56:12;15.27;;;6.27;;
20559;SDS011;10438;51.454;6.718;2023-03-05T08:58:38;22.17;;;6.07;;
20559;SDS011;10438;51.454;6.718;2023-03-05T09:01:07;14.87;;;5.97;;
20559;SDS011;10438;51.454;6.718;2023-03-05T09:03:33;14.30;;;5.70;;
20559;SDS011;10438;51.454;6.718;2023-03-05T09:05:59;17.47;;;6.07;;
20559;SDS011;10438;51.454;6.718;2023-03-05T09:08:26;17.40;;;6.50;;
20559;SDS011;10438;51.454;6.718;2023-03-05T09:10:53;18.90;;;5.63;;
20559;SDS011;10438;51.454;6.718;2023-03-05T09:13:18;12.83;;;5.90;;
20559;SDS011;10438;51.454;6.718;2023-03-05T09:15:44;15.30;;;6.00;;
20559;SDS011;10438;51.454;6.718;2023-03-05T09:18:09;16.13;;;6.47;;
20559;SDS011;10438;51.454;6.718;2023-03-05T09:20:35;16.03;;;7.30;;
20559;SDS011;10438;51.454;6.718;2023-03-05T09:23:01;13.17;;;5.80;;
20559;SDS011;10438;51.454;6.718;2023-03-05T09:25:27;17.40;;;6.50;;
20559;SDS011;10438;51.454;6.718;2023-03-05T09:27:53;16.70;;;6.73;;
20559;SDS011;10438;51.454;6.718;2023-03-05T09:30:18;16.73;;;6.30;;
20559;SDS011;10438;51.454;6.718;2023-03-05T09:32:44;15.77;;;6.57;;
20559;SDS011;10438;51.454;6.718;2023-03-05T09:35:10;12.50;;;5.73;;
20559;SDS011;10438;51.454;6.718;2023-03-05T09:37:36;13.30;;;6.03;;
20559;SDS011;10438;51.454;6.718;2023-03-05T09:40:02;13.43;;;6.70;;
20559;SDS011;10438;51.454;6.718;2023-03-05T09:53:38;13.13;;;5.40;;
20559;SDS011;10438;51.454;6.718;2023-03-05T09:56:11;14.83;;;5.70;;
20559;SDS011;10438;51.454;6.718;2023-03-05T09:58:44;10.03;;;5.00;;
20559;SDS011;10438;51.454;6.718;2023-03-05T10:03:48;9.57;;;4.70;;
20559;SDS011;10438;51.454;6.718;2023-03-05T10:11:52;8.67;;;4.70;;
20559;SDS011;10438;51.454;6.718;2023-03-05T10:20:06;8.93;;;4.50;;
20559;SDS011;10438;51.454;6.718;2023-03-05T10:25:28;12.47;;;4.47;;
20559;SDS011;10438;51.454;6.718;2023-03-05T10:28:20;9.00;;;4.13;;
20559;SDS011;10438;51.454;6.718;2023-03-05T10:31:17;7.40;;;3.03;;
20559;SDS011;10438;51.454;6.718;2023-03-05T10:33:55;8.87;;;3.60;;
20559;SDS011;10438;51.454;6.718;2023-03-05T10:36:49;5.80;;;2.80;;
20559;SDS011;10438;51.454;6.718;2023-03-05T10:42:16;11.50;;;3.00;;
20559;SDS011;10438;51.454;6.718;2023-03-05T10:44:53;9.10;;;2.90;;
20559;SDS011;10438;51.454;6.718;2023-03-05T10:47:28;8.63;;;3.30;;
20559;SDS011;10438;51.454;6.718;2023-03-05T10:50:06;7.77;;;2.70;;
20559;SDS011;10438;51.454;6.718;2023-03-05T10:52:41;9.07;;;2.87;;
20559;SDS011;10438;51.454;6.718;2023-03-05T10:55:14;8.10;;;2.87;;
20559;SDS011;10438;51.454;6.718;2023-03-05T10:57:42;8.77;;;3.60;;
20559;SDS011;10438;51.454;6.718;2023-03-05T11:03:00;7.70;;;3.60;;
20559;SDS011;10438;51.454;6.718;2023-03-05T11:07:59;6.97;;;3.27;;
20559;SDS011;10438;51.454;6.718;2023-03-05T11:10:24;10.63;;;3.50;;
20559;SDS011;10438;51.454;6.718;2023-03-05T11:12:50;7.83;;;3.40;;
20559;SDS011;10438;51.454;6.718;2023-03-05T11:17:42;6.37;;;3.00;;
20559;SDS011;10438;51.454;6.718;2023-03-05T11:25:47;7.80;;;3.00;;
20559;SDS011;10438;51.454;6.718;2023-03-05T11:28:37;5.23;;;2.60;;
20559;SDS011;10438;51.454;6.718;2023-03-05T11:33:56;8.30;;;2.57;;
20559;SDS011;10438;51.454;6.718;2023-03-05T11:36:24;8.80;;;2.30;;
20559;SDS011;10438;51.454;6.718;2023-03-05T11:38:56;4.70;;;1.50;;
20559;SDS011;10438;51.454;6.718;2023-03-05T11:41:38;5.93;;;2.10;;
20559;SDS011;10438;51.454;6.718;2023-03-05T11:44:27;5.97;;;2.13;;
20559;SDS011;10438;51.454;6.718;2023-03-05T11:47:08;8.57;;;2.50;;
20559;SDS011;10438;51.454;6.718;2023-03-05T11:49:47;5.97;;;2.07;;
20559;SDS011;10438;51.454;6.718;2023-03-05T11:52:22;4.90;;;1.87;;
20559;SDS011;10438;51.454;6.718;2023-03-05T11:57:17;5.47;;;2.10;;
20559;SDS011;10438;51.454;6.718;2023-03-05T11:59:45;6.17;;;2.20;;
20559;SDS011;10438;51.454;6.718;2023-03-05T12:02:16;5.83;;;2.00;;
20559;SDS011;10438;51.454;6.718;2023-03-05T12:04:46;5.00;;;1.63;;
20559;SDS011;10438;51.454;6.718;2023-03-05T12:07:14;4.83;;;1.93;;
20559;SDS011;10438;51.454;6.718;2023-03-05T12:09:47;6.10;;;2.03;;
20559;SDS011;10438;51.454;6.718;2023-03-05T12:12:36;5.33;;;1.87;;
20559;SDS011;10438;51.454;6.718;2023-03-05T12:17:47;3.73;;;1.40;;
20559;SDS011;10438;51.454;6.718;2023-03-05T12:20:17;6.60;;;1.83;;
20559;SDS011;10438;51.454;6.718;2023-03-05T12:23:03;5.03;;;1.80;;
20559;SDS011;10438;51.454;6.718;2023-03-05T12:27:59;9.77;;;2.00;;
20559;SDS011;10438;51.454;6.718;2023-03-05T12:30:52;5.40;;;2.13;;
20559;SDS011;10438;51.454;6.718;2023-03-05T12:38:42;7.23;;;2.63;;
20559;SDS011;10438;51.454;6.718;2023-03-05T12:44:09;7.80;;;2.70;;
20559;SDS011;10438;51.454;6.718;2023-03-05T12:51:55;9.93;;;3.40;;
20559;SDS011;10438;51.454;6.718;2023-03-05T12:54:39;5.70;;;3.00;;
20559;SDS011;10438;51.454;6.718;2023-03-05T12:57:14;3.57;;;1.50;;
20559;SDS011;10438;51.454;6.718;2023-03-05T13:02:27;4.30;;;1.27;;
20559;SDS011;10438;51.454;6.718;2023-03-05T13:04:59;3.10;;;1.30;;
20559;SDS011;10438;51.454;6.718;2023-03-05T13:07:34;4.10;;;1.50;;
20559;SDS011;10438;51.454;6.718;2023-03-05T13:10:00;4.13;;;1.27;;
20559;SDS011;10438;51.454;6.718;2023-03-05T13:12:26;3.07;;;1.60;;
20559;SDS011;10438;51.454;6.718;2023-03-05T13:14:55;4.77;;;1.67;;
20559;SDS011;10438;51.454;6.718;2023-03-05T13:17:27;3.57;;;1.63;;
20559;SDS011;10438;51.454;6.718;2023-03-05T13:19:55;5.27;;;1.50;;
20559;SDS011;10438;51.454;6.718;2023-03-05T13:22:22;3.63;;;1.40;;
20559;SDS011;10438;51.454;6.718;2023-03-05T13:27:40;4.47;;;1.40;;
20559;SDS011;10438;51.454;6.718;2023-03-05T13:30:27;5.03;;;1.53;;
20559;SDS011;10438;51.454;6.718;2023-03-05T13:32:53;5.47;;;2.67;;
20559;SDS011;10438;51.454;6.718;2023-03-05T13:35:24;6.87;;;2.53;;
20559;SDS011;10438;51.454;6.718;2023-03-05T13:37:49;7.43;;;2.10;;
20559;SDS011;10438;51.454;6.718;2023-03-05T13:40:20;6.33;;;2.70;;
20559;SDS011;10438;51.454;6.718;2023-03-05T13:42:48;6.27;;;2.80;;
20559;SDS011;10438;51.454;6.718;2023-03-05T13:47:56;6.13;;;2.80;;
20559;SDS011;10438;51.454;6.718;2023-03-05T13:52:51;7.17;;;2.77;;
20559;SDS011;10438;51.454;6.718;2023-03-05T13:55:17;6.83;;;2.87;;
20559;SDS011;10438;51.454;6.718;2023-03-05T13:57:47;8.73;;;2.73;;
20559;SDS011;10438;51.454;6.718;2023-03-05T14:03:09;4.90;;;2.80;;
20559;SDS011;10438;51.454;6.718;2023-03-05T14:05:46;7.53;;;2.90;;
20559;SDS011;10438;51.454;6.718;2023-03-05T14:08:24;6.20;;;3.03;;
20559;SDS011;10438;51.454;6.718;2023-03-05T14:10:50;10.30;;;3.37;;
20559;SDS011;10438;51.454;6.718;2023-03-05T14:13:21;7.83;;;3.47;;
20559;SDS011;10438;51.454;6.718;2023-03-05T14:18:34;6.27;;;3.07;;
20559;SDS011;10438;51.454;6.718;2023-03-05T14:21:10;14.87;;;6.60;;
20559;SDS011;10438;51.454;6.718;2023-03-05T14:23:41;5.77;;;3.53;;
20559;SDS011;10438;51.454;6.718;2023-03-05T14:31:18;8.17;;;3.33;;
20559;SDS011;10438;51.454;6.718;2023-03-05T14:33:44;54.47;;;23.50;;
20559;SDS011;10438;51.454;6.718;2023-03-05T14:36:11;33.93;;;16.23;;
20559;SDS011;10438;51.454;6.718;2023-03-05T14:38:41;9.53;;;3.40;;
20559;SDS011;10438;51.454;6.718;2023-03-05T14:43:58;5.77;;;2.60;;
20559;SDS011;10438;51.454;6.718;2023-03-05T14:46:24;6.83;;;3.30;;
20559;SDS011;10438;51.454;6.718;2023-03-05T14:48:49;12.80;;;5.97;;
20559;SDS011;10438;51.454;6.718;2023-03-05T14:51:15;10.87;;;5.63;;
20559;SDS011;10438;51.454;6.718;2023-03-05T14:53:45;5.13;;;2.80;;
20559;SDS011;10438;51.454;6.718;2023-03-05T14:56:21;8.23;;;2.70;;
20559;SDS011;10438;51.454;6.718;2023-03-05T14:58:49;6.03;;;2.60;;
20559;SDS011;10438;51.454;6.718;2023-03-05T15:01:15;8.33;;;2.47;;
20559;SDS011;10438;51.454;6.718;2023-03-05T15:03:40;5.40;;;2.90;;
20559;SDS011;10438;51.454;6.718;2023-03-05T15:06:07;8.17;;;2.50;;
20559;SDS011;10438;51.454;6.718;2023-03-05T15:08:42;5.00;;;2.70;;
20559;SDS011;10438;51.454;6.718;2023-03-05T15:11:08;4.40;;;2.07;;
20559;SDS011;10438;51.454;6.718;2023-03-05T15:13:33;7.60;;;2.90;;
20559;SDS011;10438;51.454;6.718;2023-03-05T15:16:00;8.83;;;2.53;;
20559;SDS011;10438;51.454;6.718;2023-03-05T15:18:26;7.00;;;2.70;;
20559;SDS011;10438;51.454;6.718;2023-03-05T15:20:51;4.50;;;2.10;;
20559;SDS011;10438;51.454;6.718;2023-03-05T15:23:18;4.47;;;2.00;;
20559;SDS011;10438;51.454;6.718;2023-03-05T15:25:43;5.13;;;2.30;;
20559;SDS011;10438;51.454;6.718;2023-03-05T15:28:09;3.87;;;1.80;;
20559;SDS011;10438;51.454;6.718;2023-03-05T15:30:36;5.73;;;2.23;;
20559;SDS011;10438;51.454;6.718;2023-03-05T15:33:04;4.20;;;1.67;;
20559;SDS011;10438;51.454;6.718;2023-03-05T15:35:31;3.13;;;1.50;;
20559;SDS011;10438;51.454;6.718;2023-03-05T15:37:57;3.43;;;1.87;;
20559;SDS011;10438;51.454;6.718;2023-03-05T15:40:22;6.07;;;2.00;;
20559;SDS011;10438;51.454;6.718;2023-03-05T15:42:49;4.77;;;2.03;;
20559;SDS011;10438;51.454;6.718;2023-03-05T15:45:16;4.47;;;1.67;;
20559;SDS011;10438;51.454;6.718;2023-03-05T15:47:41;4.20;;;1.70;;
20559;SDS011;10438;51.454;6.718;2023-03-05T15:50:07;3.37;;;1.53;;
20559;SDS011;10438;51.454;6.718;2023-03-05T15:52:33;4.60;;;1.63;;
20559;SDS011;10438;51.454;6.718;2023-03-05T15:54:59;3.87;;;1.50;;
20559;SDS011;10438;51.454;6.718;2023-03-05T15:57:25;3.17;;;1.40;;
20559;SDS011;10438;51.454;6.718;2023-03-05T15:59:51;4.53;;;1.67;;
20559;SDS011;10438;51.454;6.718;2023-03-05T16:02:17;4.97;;;1.93;;
20559;SDS011;10438;51.454;6.718;2023-03-05T16:04:43;3.53;;;1.57;;
20559;SDS011;10438;51.454;6.718;2023-03-05T16:07:09;5.00;;;1.90;;
20559;SDS011;10438;51.454;6.718;2023-03-05T16:09:36;4.80;;;1.80;;
20559;SDS011;10438;51.454;6.718;2023-03-05T16:12:06;5.00;;;1.70;;
20559;SDS011;10438;51.454;6.718;2023-03-05T16:14:35;3.97;;;1.70;;
20559;SDS011;10438;51.454;6.718;2023-03-05T16:17:04;5.83;;;1.90;;
20559;SDS011;10438;51.454;6.718;2023-03-05T16:19:30;5.23;;;2.17;;
20559;SDS011;10438;51.454;6.718;2023-03-05T16:21:59;4.53;;;2.20;;